Time;durP1;ratioP1;P1;durP2;ratioP2;P2;SDS_P1;SDS_P2;PMS_P1;PMS_P2;Temp;Humidity;BMP_temperature;BMP_pressure;BME280_temperature;BME280_humidity;BME280_pressure;Samples;Min_cycle;Max_cycle;Signal;HPM_P1;HPM_P2
2022/03/05 00:00:57;;;;;;;7.23;6.53;;;;;18.10;100929.00;;;;2062359;28;20783;-60
2022/03/05 00:01:57;;;;;;;7.27;6.60;;;;;18.20;100932.00;;;;2063235;28;20661;-60
2022/03/05 00:02:58;;;;;;;7.20;6.50;;;;;18.10;100912.00;;;;2063804;28;20217;-60
2022/03/05 00:03:59;;;;;;;6.70;6.10;;;;;18.20;100935.00;;;;2063652;28;20221;-60
2022/03/05 00:04:59;;;;;;;7.10;6.40;;;;;18.10;100933.00;;;;2063506;28;20210;-60
2022/03/05 00:05:59;;;;;;;6.20;5.70;;;;;18.20;100938.00;;;;2063640;28;20211;-60
2022/03/05 00:07:00;;;;;;;7.27;6.60;;;;;18.10;100934.00;;;;2063718;28;20226;-60
2022/03/05 00:08:00;;;;;;;7.23;6.53;;;;;18.10;100938.00;;;;2063490;28;20215;-60
2022/03/05 00:09:00;;;;;;;7.20;6.50;;;;;18.10;100940.00;;;;2062970;28;20303;-60
2022/03/05 00:10:01;;;;;;;6.50;5.90;;;;;18.10;100929.00;;;;2063415;28;20234;-60
2022/03/05 00:11:02;;;;;;;7.60;6.90;;;;;18.10;100933.00;;;;2062884;28;20217;-60
2022/03/05 00:12:02;;;;;;;7.13;6.45;;;;;18.10;100938.00;;;;2063610;28;20705;-60
2022/03/05 00:13:03;;;;;;;6.27;5.67;;;;;18.10;100935.00;;;;2063626;28;20203;-60
2022/03/05 00:14:03;;;;;;;7.60;6.90;;;;;18.20;100937.00;;;;2063356;28;20265;-60
2022/03/05 00:15:04;;;;;;;6.70;6.10;;;;;18.10;100930.00;;;;2063401;28;20223;-60
2022/03/05 00:16:04;;;;;;;6.80;6.20;;;;;18.10;100936.00;;;;2063564;28;20623;-60
2022/03/05 00:17:04;;;;;;;6.93;6.33;;;;;18.10;100936.00;;;;2062904;28;20214;-60
2022/03/05 00:18:05;;;;;;;7.80;7.10;;;;;18.10;100938.00;;;;2062982;28;20223;-60
2022/03/05 00:19:05;;;;;;;6.77;6.17;;;;;18.10;100922.00;;;;2063613;28;20476;-60
2022/03/05 00:20:06;;;;;;;7.13;6.53;;;;;18.10;100931.00;;;;2063726;28;20242;-60
2022/03/05 00:21:06;;;;;;;7.80;7.10;;;;;18.10;100932.00;;;;2060474;28;20313;-60
2022/03/05 00:22:07;;;;;;;7.20;6.50;;;;;18.10;100936.00;;;;2063588;28;20222;-60
2022/03/05 00:23:07;;;;;;;6.60;6.00;;;;;18.10;100939.00;;;;2063349;28;20223;-60
2022/03/05 00:24:07;;;;;;;6.87;6.27;;;;;18.10;100931.00;;;;2063681;28;25746;-60
2022/03/05 00:25:08;;;;;;;6.60;6.00;;;;;18.10;100938.00;;;;2063575;28;20377;-60
2022/03/05 00:26:11;;;;;;;6.83;6.23;;;;;18.10;100935.00;;;;2061422;28;20226;-60
2022/03/05 00:27:12;;;;;;;6.70;6.10;;;;;18.10;100942.00;;;;2063553;28;20219;-60
2022/03/05 00:28:12;;;;;;;6.90;6.20;;;;;18.10;100932.00;;;;2063566;28;20560;-60
2022/03/05 00:29:12;;;;;;;6.73;6.13;;;;;18.10;100939.00;;;;2063240;28;20642;-60
2022/03/05 00:30:13;;;;;;;6.60;6.00;;;;;18.10;100946.00;;;;2063555;28;20210;-60
2022/03/05 00:31:13;;;;;;;7.33;6.73;;;;;18.10;100946.00;;;;2060981;28;20211;-60
2022/03/05 00:32:13;;;;;;;6.77;6.17;;;;;18.10;100926.00;;;;2063621;28;20226;-60
2022/03/05 00:33:14;;;;;;;6.93;6.23;;;;;18.10;100934.00;;;;2063102;28;20211;-60
2022/03/05 00:34:14;;;;;;;6.20;5.60;;;;;18.10;100942.00;;;;2063338;28;20211;-60
2022/03/05 00:35:14;;;;;;;7.50;6.90;;;;;18.10;100936.00;;;;2063367;28;21000;-60
2022/03/05 00:36:15;;;;;;;8.40;7.60;;;;;18.10;100936.00;;;;2062216;28;20636;-60
2022/03/05 00:37:15;;;;;;;7.43;6.73;;;;;18.10;100937.00;;;;2063034;28;20219;-60
2022/03/05 00:38:16;;;;;;;6.93;6.33;;;;;18.10;100932.00;;;;2062914;28;20211;-60
2022/03/05 00:39:17;;;;;;;7.28;6.68;;;;;18.10;100931.00;;;;2062693;28;20264;-60
2022/03/05 00:40:17;;;;;;;7.47;6.77;;;;;18.10;100939.00;;;;2061337;28;20238;-60
2022/03/05 00:41:17;;;;;;;7.27;6.57;;;;;18.10;100943.00;;;;2061749;28;20228;-60
2022/03/05 00:42:18;;;;;;;7.43;6.73;;;;;18.10;100940.00;;;;2062841;28;20586;-60
2022/03/05 00:43:18;;;;;;;6.73;6.07;;;;;18.10;100936.00;;;;2062882;28;20714;-60
2022/03/05 00:44:18;;;;;;;7.00;6.40;;;;;18.10;100938.00;;;;2063028;28;20242;-60
2022/03/05 00:45:19;;;;;;;6.93;6.27;;;;;18.10;100935.00;;;;2063382;28;20218;-60
2022/03/05 00:46:19;;;;;;;7.03;6.43;;;;;18.10;100937.00;;;;2063378;28;20227;-59
2022/03/05 00:47:19;;;;;;;6.80;6.20;;;;;18.10;100937.00;;;;2062668;28;20699;-59
2022/03/05 00:48:20;;;;;;;7.07;6.37;;;;;18.10;100935.00;;;;2062591;28;20706;-60
2022/03/05 00:49:20;;;;;;;7.33;6.63;;;;;18.00;100922.00;;;;2063011;28;21172;-60
2022/03/05 00:50:20;;;;;;;7.60;6.93;;;;;18.10;100943.00;;;;2062238;28;20304;-60
2022/03/05 00:51:21;;;;;;;6.87;6.27;;;;;18.10;100936.00;;;;2059906;28;20278;-60
2022/03/05 00:52:22;;;;;;;6.70;6.10;;;;;18.10;100936.00;;;;2061803;28;20219;-60
2022/03/05 00:53:22;;;;;;;7.30;6.60;;;;;18.10;100931.00;;;;2062967;28;20855;-60
2022/03/05 00:54:22;;;;;;;7.60;6.90;;;;;18.10;100938.00;;;;2063335;28;20474;-60
2022/03/05 00:55:23;;;;;;;8.30;7.50;;;;;18.10;100936.00;;;;2063287;28;20215;-60
2022/03/05 00:56:23;;;;;;;6.57;5.97;;;;;18.10;100938.00;;;;2063355;28;20233;-60
2022/03/05 00:57:23;;;;;;;7.40;6.77;;;;;18.10;100934.00;;;;2063262;28;20760;-59
2022/03/05 00:58:24;;;;;;;6.87;6.23;;;;;18.00;100923.00;;;;2063087;28;20225;-60
2022/03/05 00:59:24;;;;;;;6.73;6.13;;;;;18.10;100924.00;;;;2062517;28;20237;-60
2022/03/05 01:00:24;;;;;;;6.90;6.30;;;;;18.00;100929.00;;;;2061714;28;20219;-60
2022/03/05 01:01:25;;;;;;;7.50;6.80;;;;;18.00;100919.00;;;;2063095;28;20234;-60
2022/03/05 01:02:25;;;;;;;7.27;6.57;;;;;18.00;100922.00;;;;2063494;28;20219;-60
2022/03/05 01:03:25;;;;;;;7.57;6.80;;;;;18.00;100924.00;;;;2063373;28;20284;-60
2022/03/05 01:04:26;;;;;;;6.73;6.13;;;;;18.00;100926.00;;;;2063227;28;20234;-59
2022/03/05 01:05:26;;;;;;;8.00;7.20;;;;;18.00;100928.00;;;;2063344;28;20790;-60
2022/03/05 01:06:27;;;;;;;7.63;6.93;;;;;18.00;100921.00;;;;2061873;28;20219;-60
2022/03/05 01:07:27;;;;;;;7.68;6.97;;;;;18.00;100925.00;;;;2061777;28;20282;-60
2022/03/05 01:08:28;;;;;;;7.50;6.80;;;;;18.00;100922.00;;;;2063315;28;20211;-60
2022/03/05 01:09:28;;;;;;;7.80;7.10;;;;;18.00;100926.00;;;;2063071;28;20250;-60
2022/03/05 01:10:28;;;;;;;6.80;6.20;;;;;18.00;100920.00;;;;2062553;28;20719;-60
2022/03/05 01:11:29;;;;;;;7.17;6.30;;;;;18.00;100922.00;;;;2062831;28;20626;-60
2022/03/05 01:12:29;;;;;;;7.53;6.90;;;;;18.00;100920.00;;;;2056180;28;20223;-60
2022/03/05 01:13:29;;;;;;;7.40;6.70;;;;;18.00;100913.00;;;;2062862;28;20226;-60
2022/03/05 01:14:30;;;;;;;7.37;6.67;;;;;18.00;100917.00;;;;2063010;28;20218;-60
2022/03/05 01:15:30;;;;;;;7.30;6.60;;;;;18.00;100915.00;;;;2060789;28;20793;-60
2022/03/05 01:16:31;;;;;;;7.57;6.87;;;;;18.00;100922.00;;;;2063234;28;20702;-60
2022/03/05 01:17:31;;;;;;;7.23;6.53;;;;;18.00;100921.00;;;;2063135;28;20214;-60
2022/03/05 01:18:31;;;;;;;7.50;6.80;;;;;18.00;100920.00;;;;2063243;28;20245;-60
2022/03/05 01:19:32;;;;;;;7.20;6.60;;;;;17.80;100917.00;;;;2063017;28;20253;-60
2022/03/05 01:20:32;;;;;;;7.23;6.63;;;;;18.00;100919.00;;;;2059556;28;20219;-60
2022/03/05 01:21:32;;;;;;;7.67;7.00;;;;;18.00;100911.00;;;;2062241;28;20577;-60
2022/03/05 01:22:33;;;;;;;7.67;6.97;;;;;18.00;100911.00;;;;2060327;28;20223;-60
2022/03/05 01:23:33;;;;;;;8.20;7.40;;;;;18.00;100913.00;;;;2062816;28;20297;-60
2022/03/05 01:24:33;;;;;;;7.87;7.07;;;;;18.00;100916.00;;;;2062008;28;20698;-60
2022/03/05 01:25:34;;;;;;;7.10;6.50;;;;;18.00;100907.00;;;;2060263;28;20670;-60
2022/03/05 01:26:34;;;;;;;7.37;6.70;;;;;18.00;100912.00;;;;2063062;28;20301;-60
2022/03/05 01:27:35;;;;;;;7.57;6.87;;;;;18.00;100905.00;;;;2062293;28;20207;-60
2022/03/05 01:28:35;;;;;;;7.03;6.43;;;;;18.00;100903.00;;;;2062309;28;20210;-60
2022/03/05 01:29:35;;;;;;;8.17;7.47;;;;;18.00;100903.00;;;;2062837;28;20206;-60
2022/03/05 01:30:36;;;;;;;8.83;8.03;;;;;18.00;100909.00;;;;2061164;28;20569;-60
2022/03/05 01:31:36;;;;;;;7.30;6.60;;;;;18.00;100916.00;;;;2062556;28;20642;-60
2022/03/05 01:32:36;;;;;;;6.90;6.30;;;;;18.00;100908.00;;;;2062672;28;20222;-60
2022/03/05 01:33:37;;;;;;;7.33;6.73;;;;;18.00;100903.00;;;;2062800;28;20246;-60
2022/03/05 01:34:37;;;;;;;7.47;6.87;;;;;18.00;100897.00;;;;2061889;28;20282;-60
2022/03/05 01:35:37;;;;;;;7.60;7.00;;;;;18.00;100903.00;;;;2061653;28;20225;-60
2022/03/05 01:36:38;;;;;;;7.23;6.63;;;;;18.00;100897.00;;;;2061842;28;20238;-60
2022/03/05 01:37:38;;;;;;;8.13;7.33;;;;;18.00;100909.00;;;;2060165;28;20270;-60
2022/03/05 01:38:38;;;;;;;7.37;6.73;;;;;18.00;100905.00;;;;2062603;28;20246;-60
2022/03/05 01:39:41;;;;;;;7.33;6.70;;;;;18.00;100904.00;;;;2058540;28;20489;-60
2022/03/05 01:40:41;;;;;;;7.55;6.85;;;;;18.00;100906.00;;;;2061427;28;20225;-59
2022/03/05 01:41:44;;;;;;;8.00;7.30;;;;;18.00;100899.00;;;;2062293;28;20219;-60
2022/03/05 01:42:45;;;;;;;8.13;7.43;;;;;18.00;100891.00;;;;2062786;28;20222;-60
2022/03/05 01:43:50;;;;;;;8.27;7.53;;;;;18.00;100906.00;;;;2061939;28;20274;-60
2022/03/05 01:44:50;;;;;;;7.82;7.13;;;;;18.00;100898.00;;;;2055964;28;20215;-60
2022/03/05 01:45:51;;;;;;;7.47;6.77;;;;;18.00;100904.00;;;;2061829;28;20900;-60
2022/03/05 01:46:51;;;;;;;7.83;7.13;;;;;17.80;100895.00;;;;2062268;28;20221;-60
2022/03/05 01:47:51;;;;;;;7.10;6.40;;;;;18.00;100902.00;;;;2056260;28;20214;-60
2022/03/05 01:48:52;;;;;;;7.70;7.00;;;;;17.90;100903.00;;;;2060285;28;20577;-60
2022/03/05 01:49:52;;;;;;;7.67;6.97;;;;;17.90;100901.00;;;;2061924;28;20221;-60
2022/03/05 01:50:52;;;;;;;7.20;6.60;;;;;17.90;100900.00;;;;2059998;28;20215;-60
2022/03/05 01:51:54;;;;;;;7.30;6.70;;;;;18.00;100899.00;;;;2062795;28;20254;-60
2022/03/05 01:52:54;;;;;;;7.72;7.00;;;;;17.90;100910.00;;;;2062275;28;20294;-60
2022/03/05 01:53:55;;;;;;;7.67;7.07;;;;;18.00;100908.00;;;;2062429;28;20265;-60
2022/03/05 01:54:55;;;;;;;6.83;6.23;;;;;17.90;100901.00;;;;2062699;28;20207;-60
2022/03/05 01:55:55;;;;;;;7.30;6.70;;;;;17.90;100906.00;;;;2062910;28;20221;-60
2022/03/05 01:56:56;;;;;;;9.33;6.90;;;;;18.00;100897.00;;;;2061480;28;20215;-60
2022/03/05 01:57:56;;;;;;;7.73;7.03;;;;;17.90;100909.00;;;;2058602;28;20306;-60
2022/03/05 01:58:56;;;;;;;7.77;7.10;;;;;17.90;100905.00;;;;2061661;28;20266;-60
2022/03/05 01:59:57;;;;;;;8.00;7.23;;;;;17.90;100900.00;;;;2053612;28;20219;-60
2022/03/05 02:00:57;;;;;;;7.80;7.03;;;;;17.90;100901.00;;;;2044752;29;20220;-60
2022/03/05 02:01:57;;;;;;;7.80;7.10;;;;;17.90;100905.00;;;;2045545;28;20244;-60
2022/03/05 02:02:58;;;;;;;7.57;6.87;;;;;18.00;100904.00;;;;2061887;28;20302;-60
2022/03/05 02:03:59;;;;;;;8.27;7.57;;;;;18.00;100904.00;;;;2062892;28;20222;-60
2022/03/05 02:05:00;;;;;;;8.10;7.30;;;;;17.90;100898.00;;;;2062787;28;20242;-60
2022/03/05 02:06:00;;;;;;;7.93;7.23;;;;;17.90;100907.00;;;;2061080;28;20215;-60
2022/03/05 02:07:00;;;;;;;8.43;7.60;;;;;17.90;100905.00;;;;2062705;28;20211;-60
2022/03/05 02:08:01;;;;;;;7.60;7.00;;;;;17.90;100909.00;;;;2062165;28;20298;-60
2022/03/05 02:09:01;;;;;;;8.43;7.63;;;;;17.90;100906.00;;;;2061233;28;20219;-60
2022/03/05 02:10:03;;;;;;;7.77;7.07;;;;;17.90;100901.00;;;;2061438;28;20214;-59
2022/03/05 02:11:03;;;;;;;7.40;6.70;;;;;17.90;100903.00;;;;2062190;28;20219;-60
2022/03/05 02:12:03;;;;;;;8.10;7.40;;;;;17.90;100905.00;;;;2062847;28;20211;-60
2022/03/05 02:13:04;;;;;;;8.27;7.57;;;;;17.90;100897.00;;;;2062843;28;20218;-60
2022/03/05 02:14:04;;;;;;;7.73;6.93;;;;;17.90;100897.00;;;;2062790;28;20589;-60
2022/03/05 02:15:05;;;;;;;7.87;7.17;;;;;17.90;100897.00;;;;2062734;28;20629;-60
2022/03/05 02:16:06;;;;;;;7.80;7.10;;;;;17.90;100868.00;;;;2062826;28;20214;-60
2022/03/05 02:17:06;;;;;;;7.27;6.67;;;;;17.90;100892.00;;;;2062729;28;20883;-60
2022/03/05 02:18:06;;;;;;;7.60;7.00;;;;;17.90;100898.00;;;;2062789;28;20604;-60
2022/03/05 02:19:07;;;;;;;7.57;6.90;;;;;17.90;100887.00;;;;2062746;28;20690;-60
2022/03/05 02:20:09;;;;;;;7.90;7.10;;;;;17.90;100892.00;;;;2062705;28;20214;-60
2022/03/05 02:21:09;;;;;;;7.93;7.15;;;;;17.90;100893.00;;;;2058490;28;20300;-60
2022/03/05 02:22:10;;;;;;;8.10;7.40;;;;;17.90;100887.00;;;;2061375;28;20222;-60
2022/03/05 02:23:10;;;;;;;8.00;7.27;;;;;17.90;100893.00;;;;2061586;28;20301;-60
2022/03/05 02:24:10;;;;;;;7.13;6.53;;;;;17.90;100887.00;;;;2061116;28;20473;-60
2022/03/05 02:25:11;;;;;;;7.40;6.70;;;;;17.90;100885.00;;;;2062442;28;20207;-60
2022/03/05 02:26:11;;;;;;;8.70;7.80;;;;;17.90;100894.00;;;;2061577;28;20266;-60
2022/03/05 02:27:11;;;;;;;7.73;7.03;;;;;17.90;100892.00;;;;2062458;28;20215;-60
2022/03/05 02:28:12;;;;;;;8.43;7.63;;;;;17.90;100894.00;;;;2062327;28;20265;-60
2022/03/05 02:29:12;;;;;;;7.90;7.20;;;;;17.90;100890.00;;;;2059562;28;21756;-60
2022/03/05 02:30:12;;;;;;;7.80;7.13;;;;;17.90;100887.00;;;;2062013;28;20217;-60
2022/03/05 02:31:13;;;;;;;6.97;6.37;;;;;17.90;100886.00;;;;2059553;28;20206;-60
2022/03/05 02:32:13;;;;;;;8.47;7.67;;;;;17.90;100883.00;;;;2063569;28;20213;-60
2022/03/05 02:33:13;;;;;;;8.00;7.20;;;;;17.90;100887.00;;;;2065350;28;20211;-60
2022/03/05 02:34:14;;;;;;;8.30;7.50;;;;;17.90;100887.00;;;;2065063;28;20233;-60
2022/03/05 02:35:14;;;;;;;8.27;7.57;;;;;17.90;100892.00;;;;2065381;28;20228;-60
2022/03/05 02:36:14;;;;;;;7.87;7.10;;;;;17.90;100892.00;;;;2064603;28;20210;-60
2022/03/05 02:37:16;;;;;;;8.10;7.40;;;;;17.90;100891.00;;;;2064190;28;20218;-60
2022/03/05 02:38:17;;;;;;;8.40;7.50;;;;;17.90;100887.00;;;;2064633;28;20219;-60
2022/03/05 02:39:18;;;;;;;8.80;8.00;;;;;17.90;100893.00;;;;2064696;28;20219;-60
2022/03/05 02:40:18;;;;;;;7.57;6.87;;;;;17.90;100891.00;;;;2064873;28;20218;-60
2022/03/05 02:41:19;;;;;;;7.63;7.00;;;;;17.90;100890.00;;;;2062533;28;20211;-60
2022/03/05 02:42:19;;;;;;;8.10;7.40;;;;;17.90;100888.00;;;;2064697;28;20269;-60
2022/03/05 02:43:21;;;;;;;7.93;7.23;;;;;17.90;100890.00;;;;2064543;28;20612;-60
2022/03/05 02:44:22;;;;;;;7.70;6.97;;;;;17.90;100889.00;;;;2065362;28;20241;-60
2022/03/05 02:45:22;;;;;;;8.03;6.93;;;;;17.90;100884.00;;;;2064752;28;20742;-60
2022/03/05 02:46:26;;;;;;;7.67;6.87;;;;;17.90;100889.00;;;;2064697;28;20214;-59
2022/03/05 02:47:27;;;;;;;8.30;7.50;;;;;17.90;100880.00;;;;2061705;28;20210;-60
2022/03/05 02:48:27;;;;;;;8.37;7.60;;;;;17.90;100884.00;;;;2065425;28;20214;-60
2022/03/05 02:49:28;;;;;;;9.10;8.27;;;;;17.90;100882.00;;;;2062926;28;20233;-60
2022/03/05 02:50:29;;;;;;;7.43;6.73;;;;;17.90;100879.00;;;;2064684;28;20229;-60
2022/03/05 02:51:30;;;;;;;7.83;7.13;;;;;17.90;100877.00;;;;2065078;28;20282;-60
2022/03/05 02:52:30;;;;;;;7.80;7.10;;;;;17.60;100883.00;;;;2064980;28;20454;-60
2022/03/05 02:53:31;;;;;;;8.73;7.93;;;;;17.90;100883.00;;;;2065285;28;20516;-60
2022/03/05 02:54:31;;;;;;;8.52;7.72;;;;;17.90;100878.00;;;;2065365;28;20221;-59
2022/03/05 02:55:32;;;;;;;7.53;6.93;;;;;17.90;100884.00;;;;2065334;28;20574;-60
2022/03/05 02:56:32;;;;;;;7.70;7.00;;;;;17.80;100878.00;;;;2052480;28;20880;-60
2022/03/05 02:57:33;;;;;;;8.47;7.67;;;;;17.90;100870.00;;;;2053430;28;20214;-60
2022/03/05 02:58:33;;;;;;;8.00;7.30;;;;;17.90;100887.00;;;;2065218;28;20290;-60
2022/03/05 02:59:33;;;;;;;8.80;7.90;;;;;17.90;100880.00;;;;2065178;28;20222;-60
2022/03/05 03:00:34;;;;;;;8.13;7.43;;;;;17.90;100880.00;;;;2063901;28;20215;-60
2022/03/05 03:01:34;;;;;;;8.60;7.80;;;;;17.90;100887.00;;;;2065394;28;20217;-59
2022/03/05 03:02:34;;;;;;;8.03;7.33;;;;;17.90;100876.00;;;;2065232;28;20206;-60
2022/03/05 03:03:35;;;;;;;7.97;7.27;;;;;17.80;100874.00;;;;2063029;28;20730;-60
2022/03/05 03:04:35;;;;;;;7.63;6.93;;;;;17.90;100878.00;;;;2064237;28;20639;-60
2022/03/05 03:05:35;;;;;;;8.90;8.10;;;;;17.80;100879.00;;;;2065458;28;20215;-60
2022/03/05 03:06:36;;;;;;;8.50;7.70;;;;;17.90;100875.00;;;;2065282;28;20232;-60
2022/03/05 03:07:36;;;;;;;8.23;7.53;;;;;17.70;100887.00;;;;2065434;28;20214;-60
2022/03/05 03:08:36;;;;;;;8.90;8.00;;;;;17.90;100880.00;;;;2065210;28;20207;-60
2022/03/05 03:09:37;;;;;;;8.90;8.10;;;;;17.90;100877.00;;;;2065214;28;20310;-60
2022/03/05 03:10:37;;;;;;;8.40;7.60;;;;;17.80;100873.00;;;;2064390;28;21045;-60
2022/03/05 03:11:37;;;;;;;8.33;7.63;;;;;17.80;100874.00;;;;2062983;28;20776;-60
2022/03/05 03:12:38;;;;;;;7.93;7.23;;;;;17.90;100878.00;;;;2064822;28;20226;-60
2022/03/05 03:13:38;;;;;;;8.50;7.70;;;;;17.80;100873.00;;;;2064434;28;20293;-60
2022/03/05 03:14:38;;;;;;;8.80;8.00;;;;;17.80;100876.00;;;;2064382;28;20226;-59
2022/03/05 03:15:39;;;;;;;7.73;7.00;;;;;17.80;100885.00;;;;2065498;28;20412;-60
2022/03/05 03:16:39;;;;;;;8.53;7.70;;;;;17.80;100874.00;;;;2065417;28;20819;-60
2022/03/05 03:17:44;;;;;;;8.00;7.30;;;;;17.80;100875.00;;;;2065426;28;20589;-60
2022/03/05 03:18:44;;;;;;;8.38;7.68;;;;;17.80;100875.00;;;;2065436;28;20218;-60
2022/03/05 03:19:45;;;;;;;7.13;6.53;;;;;17.80;100868.00;;;;2065198;28;20219;-60
2022/03/05 03:20:45;;;;;;;8.53;7.73;;;;;17.80;100873.00;;;;2064532;28;20229;-60
2022/03/05 03:21:46;;;;;;;9.00;8.10;;;;;17.80;100858.00;;;;2065081;28;20238;-60
2022/03/05 03:22:46;;;;;;;7.70;7.00;;;;;17.80;100872.00;;;;2065365;28;20701;-59
2022/03/05 03:23:46;;;;;;;7.93;7.23;;;;;17.80;100864.00;;;;2065314;28;20214;-60
2022/03/05 03:24:47;;;;;;;9.33;8.43;;;;;17.80;100867.00;;;;2065246;28;20675;-60
2022/03/05 03:25:47;;;;;;;8.10;7.40;;;;;17.80;100872.00;;;;2065385;28;20238;-60
2022/03/05 03:26:47;;;;;;;9.00;8.20;;;;;17.80;100860.00;;;;2062551;28;20699;-60
2022/03/05 03:27:48;;;;;;;8.70;8.00;;;;;17.80;100871.00;;;;2065416;28;20233;-60
2022/03/05 03:28:48;;;;;;;8.10;7.40;;;;;17.80;100864.00;;;;2064359;28;20229;-60
2022/03/05 03:29:49;;;;;;;8.20;7.40;;;;;17.80;100867.00;;;;2062742;28;20222;-60
2022/03/05 03:30:49;;;;;;;8.17;7.47;;;;;17.80;100872.00;;;;2064412;28;20226;-60
2022/03/05 03:31:49;;;;;;;7.77;7.07;;;;;17.80;100867.00;;;;2064429;28;20243;-59
2022/03/05 03:32:50;;;;;;;8.50;7.70;;;;;17.80;100872.00;;;;2065233;28;20219;-60
2022/03/05 03:33:50;;;;;;;8.03;7.33;;;;;17.80;100866.00;;;;2065258;28;20302;-60
2022/03/05 03:34:50;;;;;;;8.00;7.30;;;;;17.80;100860.00;;;;2065281;28;20214;-60
2022/03/05 03:35:51;;;;;;;7.70;7.00;;;;;17.80;100858.00;;;;2065285;28;20268;-60
2022/03/05 03:36:51;;;;;;;8.60;7.80;;;;;17.80;100862.00;;;;2064617;28;20551;-60
2022/03/05 03:37:51;;;;;;;8.40;7.70;;;;;17.80;100861.00;;;;2063986;28;20210;-60
2022/03/05 03:38:52;;;;;;;8.23;7.43;;;;;17.80;100857.00;;;;2063906;28;20207;-60
2022/03/05 03:39:52;;;;;;;8.50;7.70;;;;;17.80;100861.00;;;;2064828;28;20225;-60
2022/03/05 03:40:52;;;;;;;8.03;7.33;;;;;17.80;100868.00;;;;2063235;28;20210;-60
2022/03/05 03:41:53;;;;;;;8.23;7.43;;;;;17.80;100865.00;;;;2064150;28;20741;-60
2022/03/05 03:42:53;;;;;;;7.70;7.03;;;;;17.80;100863.00;;;;2063012;28;20286;-60
2022/03/05 03:43:53;;;;;;;7.63;6.93;;;;;17.80;100864.00;;;;2063833;28;20219;-60
2022/03/05 03:44:54;;;;;;;8.33;7.47;;;;;17.80;100868.00;;;;2062418;28;20211;-60
2022/03/05 03:45:54;;;;;;;8.23;7.43;;;;;17.80;100868.00;;;;2063857;28;20218;-60
2022/03/05 03:46:56;;;;;;;8.00;7.30;;;;;17.80;100873.00;;;;2063381;28;20215;-60
2022/03/05 03:47:57;;;;;;;8.30;7.50;;;;;17.80;100870.00;;;;2061497;28;20222;-60
2022/03/05 03:48:57;;;;;;;8.37;7.47;;;;;17.80;100871.00;;;;2063250;28;20215;-60
2022/03/05 03:49:57;;;;;;;8.10;7.30;;;;;17.80;100872.00;;;;2063947;28;20361;-60
2022/03/05 03:50:58;;;;;;;8.30;7.50;;;;;17.80;100871.00;;;;2062940;28;20641;-60
2022/03/05 03:51:58;;;;;;;8.37;7.57;;;;;17.80;100869.00;;;;2063677;28;20223;-60
2022/03/05 03:52:58;;;;;;;8.53;7.80;;;;;17.80;100877.00;;;;2063638;28;20210;-60
2022/03/05 03:53:59;;;;;;;9.00;8.20;;;;;17.80;100875.00;;;;2063824;28;20254;-60
2022/03/05 03:54:59;;;;;;;8.07;7.33;;;;;17.80;100879.00;;;;2063769;28;20223;-60
2022/03/05 03:56:00;;;;;;;7.73;7.03;;;;;17.80;100880.00;;;;2062691;28;20309;-60
2022/03/05 03:57:00;;;;;;;8.20;7.50;;;;;17.80;100880.00;;;;2063672;28;20223;-59
2022/03/05 03:58:01;;;;;;;8.20;7.50;;;;;17.80;100887.00;;;;2063767;28;20710;-60
2022/03/05 03:59:01;;;;;;;8.13;7.33;;;;;17.80;100884.00;;;;2062790;28;20670;-60
2022/03/05 04:00:02;;;;;;;7.60;6.90;;;;;17.80;100884.00;;;;2061611;28;20462;-60
2022/03/05 04:01:03;;;;;;;8.57;7.80;;;;;17.80;100885.00;;;;2062798;28;20709;-60
2022/03/05 04:02:03;;;;;;;8.13;7.43;;;;;17.80;100895.00;;;;2063683;28;20215;-60
2022/03/05 04:03:04;;;;;;;8.90;8.10;;;;;17.80;100886.00;;;;2063689;28;20215;-60
2022/03/05 04:04:04;;;;;;;8.30;7.50;;;;;17.80;100881.00;;;;2063795;28;20211;-60
2022/03/05 04:05:05;;;;;;;8.87;8.07;;;;;17.80;100882.00;;;;2063012;28;20613;-60
2022/03/05 04:06:05;;;;;;;9.00;8.10;;;;;17.80;100890.00;;;;2062734;28;20691;-60
2022/03/05 04:08:42;;;;;;;7.97;7.18;;;;;17.80;100894.00;;;;2063648;28;20215;-60
2022/03/05 04:09:43;;;;;;;8.43;7.72;;;;;17.80;100888.00;;;;2063580;28;20702;-60
2022/03/05 04:10:43;;;;;;;7.60;6.93;;;;;17.80;100883.00;;;;2062657;28;20221;-58
2022/03/05 04:11:43;;;;;;;7.90;7.20;;;;;17.80;100892.00;;;;2062753;28;20310;-60
2022/03/05 04:12:44;;;;;;;8.90;8.10;;;;;17.70;100895.00;;;;2063284;28;20683;-60
2022/03/05 04:13:45;;;;;;;8.30;7.50;;;;;17.80;100890.00;;;;2062468;28;20207;-60
2022/03/05 04:14:46;;;;;;;8.60;7.80;;;;;17.80;100886.00;;;;2062799;28;20261;-60
2022/03/05 04:15:46;;;;;;;8.77;7.87;;;;;17.80;100890.00;;;;2063760;28;20199;-60
2022/03/05 04:16:46;;;;;;;7.97;7.17;;;;;17.70;100890.00;;;;2063072;28;20215;-60
2022/03/05 04:17:47;;;;;;;9.10;8.30;;;;;17.80;100891.00;;;;2063831;28;20199;-60
2022/03/05 04:18:47;;;;;;;8.60;7.80;;;;;17.80;100893.00;;;;2063718;28;20218;-60
2022/03/05 04:19:48;;;;;;;8.50;7.60;;;;;17.80;100885.00;;;;2063701;28;20226;-59
2022/03/05 04:20:48;;;;;;;8.57;7.77;;;;;17.80;100889.00;;;;2062878;28;20215;-60
2022/03/05 04:21:48;;;;;;;9.03;8.23;;;;;17.80;100890.00;;;;2063439;28;20203;-60
2022/03/05 04:22:48;;;;;;;7.73;7.03;;;;;17.80;100890.00;;;;2063596;28;20223;-60
2022/03/05 04:23:49;;;;;;;8.20;7.43;;;;;17.80;100886.00;;;;2063712;28;20238;-60
2022/03/05 04:24:49;;;;;;;8.80;8.07;;;;;17.80;100903.00;;;;2063585;28;20226;-60
2022/03/05 04:25:49;;;;;;;8.53;7.73;;;;;17.70;100901.00;;;;2063640;28;20218;-60
2022/03/05 04:26:50;;;;;;;8.77;7.97;;;;;17.70;100900.00;;;;2063818;28;20221;-60
2022/03/05 04:27:50;;;;;;;8.70;8.00;;;;;17.70;100894.00;;;;2059915;28;20230;-60
2022/03/05 04:28:50;;;;;;;8.40;7.60;;;;;17.80;100894.00;;;;2063603;28;21075;-60
2022/03/05 04:29:51;;;;;;;8.17;7.47;;;;;17.70;100877.00;;;;2063113;28;20223;-60
2022/03/05 04:30:51;;;;;;;8.10;7.30;;;;;17.70;100897.00;;;;2062736;28;20254;-60
2022/03/05 04:31:51;;;;;;;8.50;7.80;;;;;17.70;100893.00;;;;2063583;28;20226;-60
2022/03/05 04:32:52;;;;;;;8.60;7.70;;;;;17.70;100896.00;;;;2063591;28;20683;-60
2022/03/05 04:33:52;;;;;;;8.00;7.20;;;;;17.70;100903.00;;;;2063656;28;20687;-60
2022/03/05 04:34:52;;;;;;;8.23;7.53;;;;;17.70;100902.00;;;;2063518;28;20884;-60
2022/03/05 04:35:53;;;;;;;8.00;7.30;;;;;17.70;100893.00;;;;2062663;28;20211;-60
2022/03/05 04:36:53;;;;;;;9.43;8.57;;;;;17.70;100892.00;;;;2059031;28;20245;-60
2022/03/05 04:37:53;;;;;;;8.20;7.50;;;;;17.80;100897.00;;;;2062317;28;20899;-60
2022/03/05 04:38:54;;;;;;;7.97;7.27;;;;;17.80;100902.00;;;;2062329;28;20230;-59
2022/03/05 04:39:54;;;;;;;8.67;7.87;;;;;17.70;100897.00;;;;2063660;28;20214;-60
2022/03/05 04:40:54;;;;;;;8.30;7.50;;;;;17.70;100892.00;;;;2062670;28;20254;-60
2022/03/05 04:41:55;;;;;;;8.30;7.50;;;;;17.70;100895.00;;;;2060942;28;20219;-60
2022/03/05 04:42:55;;;;;;;7.60;6.90;;;;;17.70;100902.00;;;;2062845;28;20210;-60
2022/03/05 04:43:55;;;;;;;8.00;7.20;;;;;17.70;100901.00;;;;2053410;28;20290;-60
2022/03/05 04:44:56;;;;;;;8.70;7.80;;;;;17.70;100898.00;;;;2070798;28;20203;-60
2022/03/05 04:45:56;;;;;;;8.90;8.10;;;;;17.80;100899.00;;;;2068639;28;20264;-60
2022/03/05 04:46:56;;;;;;;8.33;7.63;;;;;17.70;100907.00;;;;2063659;28;20221;-60
2022/03/05 04:47:57;;;;;;;8.97;8.10;;;;;17.70;100903.00;;;;2063651;28;20211;-60
2022/03/05 04:48:57;;;;;;;9.27;8.37;;;;;17.70;100899.00;;;;2063489;28;20217;-60
2022/03/05 04:49:57;;;;;;;8.30;7.50;;;;;17.70;100901.00;;;;2062652;28;20215;-60
2022/03/05 04:50:58;;;;;;;8.13;7.40;;;;;17.70;100905.00;;;;2061980;28;20270;-60
2022/03/05 04:51:58;;;;;;;8.73;7.93;;;;;17.80;100902.00;;;;2063061;28;20834;-60
2022/03/05 04:52:58;;;;;;;8.70;7.57;;;;;17.70;100895.00;;;;2061892;28;20610;-60
2022/03/05 04:53:59;;;;;;;8.63;7.90;;;;;17.70;100898.00;;;;2062491;28;21039;-60
2022/03/05 04:54:59;;;;;;;8.70;7.90;;;;;17.70;100905.00;;;;2063226;28;20210;-60
2022/03/05 04:55:59;;;;;;;8.90;8.00;;;;;17.70;100901.00;;;;2061811;28;20222;-60
2022/03/05 04:57:00;;;;;;;8.70;7.90;;;;;17.70;100906.00;;;;2062968;28;20210;-60
2022/03/05 04:58:00;;;;;;;7.93;7.23;;;;;17.70;100901.00;;;;2059515;28;20259;-60
2022/03/05 04:59:00;;;;;;;8.63;7.83;;;;;17.70;100897.00;;;;2063131;28;20917;-60
2022/03/05 05:00:02;;;;;;;8.23;7.50;;;;;17.70;100901.00;;;;2063369;28;20555;-60
2022/03/05 05:01:03;;;;;;;8.32;7.53;;;;;17.70;100903.00;;;;2062571;28;20211;-60